Time;durP1;ratioP1;P1;durP2;ratioP2;P2;SDS_P1;SDS_P2;PMS_P1;PMS_P2;Temp;Humidity;BMP_temperature;BMP_pressure;BME280_temperature;BME280_humidity;BME280_pressure;Samples;Min_cycle;Max_cycle;Signal;HPM_P1;HPM_P2
2022/08/25 00:02:07;;;;;;;3.38;1.20;;;;;;;22.84;91.23;100466.94;4974674;28;20440;-83
2022/08/25 00:04:34;;;;;;;3.63;0.98;;;;;;;22.85;91.24;100467.75;4914611;29;20052;-85
2022/08/25 00:07:00;;;;;;;3.15;1.05;;;;;;;22.82;91.42;100462.84;4915310;29;20490;-85
2022/08/25 00:09:26;;;;;;;4.10;1.10;;;;;;;22.78;91.57;100465.19;4915205;29;20440;-84
2022/08/25 00:11:53;;;;;;;5.75;1.20;;;;;;;22.72;91.33;100463.47;4914988;29;20044;-82
2022/08/25 00:14:22;;;;;;;6.25;1.10;;;;;;;22.73;91.92;100458.91;4924647;28;20047;-82
2022/08/25 00:16:48;;;;;;;1.38;0.85;;;;;;;22.88;90.57;100462.69;4973772;28;20032;-82
2022/08/25 00:19:20;;;;;;;3.80;1.10;;;;;;;22.80;91.66;100457.69;4973656;28;20400;-82
2022/08/25 00:21:46;;;;;;;4.68;1.27;;;;;;;22.77;91.54;100458.16;4963188;28;20042;-82
2022/08/25 00:24:14;;;;;;;5.97;1.40;;;;;;;22.72;91.55;100452.66;4973149;28;20041;-84
2022/08/25 00:26:42;;;;;;;4.38;1.33;;;;;;;22.87;90.31;100455.63;4973287;28;20030;-81
2022/08/25 00:29:09;;;;;;;3.78;1.10;;;;;;;22.92;88.99;100457.59;4972042;28;20034;-82
2022/08/25 00:31:35;;;;;;;5.68;0.90;;;;;;;22.76;90.17;100456.53;4973341;28;20039;-82
2022/08/25 00:34:02;;;;;;;2.25;1.25;;;;;;;22.79;89.73;100458.75;4969613;28;20048;-81
2022/08/25 00:36:28;;;;;;;2.65;1.08;;;;;;;22.83;89.04;100459.09;4973624;28;20031;-83
2022/08/25 00:38:54;;;;;;;1.88;0.98;;;;;;;22.81;87.37;100459.31;4963639;28;20049;-84
2022/08/25 00:41:23;;;;;;;2.20;1.20;;;;;;;22.91;87.56;100462.19;4961477;28;20085;-83
2022/08/25 00:43:55;;;;;;;5.65;1.48;;;;;;;22.80;87.44;100464.97;4975909;28;20063;-82
2022/08/25 00:46:30;;;;;;;1.55;1.00;;;;;;;22.69;88.71;100461.25;4985511;28;20468;-82
2022/08/25 00:49:06;;;;;;;5.93;1.30;;;;;;;22.73;88.38;100459.72;4973879;28;20034;-82
2022/08/25 00:51:42;;;;;;;5.15;1.10;;;;;;;22.68;89.95;100462.31;4973121;28;20034;-82
2022/08/25 00:54:12;;;;;;;2.58;1.17;;;;;;;22.88;87.99;100468.09;4973036;28;20081;-82
2022/08/25 00:56:38;;;;;;;4.10;1.15;;;;;;;22.97;86.80;100466.63;4974237;28;20476;-80
2022/08/25 00:59:04;;;;;;;6.10;1.23;;;;;;;22.87;87.12;100462.94;4974121;28;20039;-83
2022/08/25 01:01:30;;;;;;;1.67;1.10;;;;;;;22.87;86.69;100471.84;4974391;28;20527;-82
2022/08/25 01:03:56;;;;;;;2.60;1.30;;;;;;;22.86;86.29;100470.22;4974016;28;20050;-82
2022/08/25 01:06:22;;;;;;;4.35;1.25;;;;;;;22.90;86.07;100465.94;4972759;28;20373;-82
2022/08/25 01:08:49;;;;;;;6.68;1.30;;;;;;;22.93;85.73;100468.19;4974186;28;20043;-84
2022/08/25 01:11:15;;;;;;;6.28;1.13;;;;;;;22.70;86.19;100460.22;4974168;28;20089;-82
2022/08/25 01:13:48;;;;;;;4.57;1.10;;;;;;;22.55;87.31;100454.47;4971533;28;20066;-82
2022/08/25 01:16:15;;;;;;;6.75;1.10;;;;;;;22.62;87.10;100461.38;4972940;28;20035;-82
2022/08/25 01:18:45;;;;;;;3.53;1.40;;;;;;;22.69;86.16;100461.25;4973865;28;20039;-81
2022/08/25 01:21:11;;;;;;;5.55;1.23;;;;;;;22.62;87.11;100457.84;4973989;28;20035;-82
2022/08/25 01:23:37;;;;;;;3.08;1.25;;;;;;;22.50;87.13;100446.31;4974021;28;20042;-82
2022/08/25 01:26:17;;;;;;;2.03;0.90;;;;;;;22.62;86.16;100447.06;4973885;28;20471;-83
2022/08/25 01:31:30;;;;;;;2.95;1.05;;;;;;;22.92;81.82;100447.63;4972800;28;20079;-82
2022/08/25 01:33:57;;;;;;;5.93;1.50;;;;;;;22.66;83.02;100453.66;4974024;28;20453;-81
2022/08/25 01:36:27;;;;;;;5.22;1.20;;;;;;;22.47;84.02;100454.88;4975513;28;20030;-81
2022/08/25 01:38:53;;;;;;;4.70;1.20;;;;;;;22.31;84.24;100456.44;4976965;28;20468;-81
2022/08/25 01:41:48;;;;;;;4.30;1.23;;;;;;;22.19;85.08;100457.56;4977116;28;20034;-82
2022/08/25 01:44:16;;;;;;;2.85;1.15;;;;;;;22.22;84.61;100457.06;4976275;28;20568;-83
2022/08/25 01:46:41;;;;;;;4.55;1.20;;;;;;;22.11;85.59;100451.47;4976947;28;20094;-81
2022/08/25 01:49:07;;;;;;;7.82;1.10;;;;;;;22.04;85.55;100456.19;4977280;28;20038;-83
2022/08/25 01:51:47;;;;;;;2.40;1.23;;;;;;;21.97;86.12;100454.69;4977371;28;20035;-83
2022/08/25 01:54:12;;;;;;;2.10;1.13;;;;;;;21.91;86.83;100456.44;4976947;28;20045;-82
2022/08/25 01:56:38;;;;;;;2.90;1.20;;;;;;;21.84;87.38;100461.13;4977035;28;20843;-82
2022/08/25 01:59:04;;;;;;;2.58;1.02;;;;;;;21.79;87.66;100463.72;4976981;28;20062;-82
2022/08/25 02:01:29;;;;;;;5.35;1.33;;;;;;;21.72;88.77;100459.50;4964533;28;20030;-82
2022/08/25 02:03:59;;;;;;;5.85;1.30;;;;;;;21.67;89.28;100471.81;4996401;28;20062;-81
2022/08/25 02:06:31;;;;;;;6.85;1.30;;;;;;;21.62;89.35;100462.78;4977966;28;20051;-81
2022/08/25 02:08:59;;;;;;;;;;;;;;;21.55;89.63;100467.47;4977017;28;20070;-82
2022/08/25 02:11:26;;;;;;;3.05;1.30;;;;;;;21.55;89.55;100464.78;4976600;28;19922;-82
2022/08/25 02:13:51;;;;;;;4.25;1.40;;;;;;;21.58;89.14;100459.75;4976329;28;20069;-80
2022/08/25 02:16:33;;;;;;;3.92;1.52;;;;;;;21.59;89.05;100464.09;4976261;28;20046;-82
2022/08/25 02:19:00;;;;;;;3.28;1.40;;;;;;;21.67;88.95;100464.78;4976487;28;20517;-80
2022/08/25 02:21:26;;;;;;;3.35;1.60;;;;;;;21.79;87.90;100466.41;4976414;28;20114;-82
2022/08/25 02:23:52;;;;;;;3.45;1.55;;;;;;;21.73;88.50;100461.97;4976520;28;20039;-80
2022/08/25 02:26:18;;;;;;;1.50;1.30;;;;;;;21.66;88.71;100466.66;4976310;28;20034;-80
2022/08/25 02:28:49;;;;;;;2.95;1.20;;;;;;;21.70;88.71;100467.00;4976235;28;20110;-80
2022/08/25 02:31:17;;;;;;;5.70;1.45;;;;;;;21.74;89.01;100466.31;4976424;28;20496;-83
2022/08/25 02:33:42;;;;;;;8.73;1.25;;;;;;;21.93;87.63;100470.53;4976176;28;20492;-80
2022/08/25 02:36:08;;;;;;;1.92;1.05;;;;;;;21.75;90.28;100467.94;4976177;28;20031;-81
2022/08/25 02:38:35;;;;;;;10.35;1.50;;;;;;;21.83;89.62;100464.06;4976376;28;20117;-82
2022/08/25 02:41:15;;;;;;;3.20;1.10;;;;;;;21.91;88.62;100453.75;4976201;28;20027;-81
2022/08/25 02:43:43;;;;;;;2.90;1.42;;;;;;;21.68;89.06;100461.84;4976319;28;20043;-84
2022/08/25 02:46:11;;;;;;;2.88;1.20;;;;;;;21.61;89.78;100466.53;4976214;28;20038;-82
2022/08/25 02:48:38;;;;;;;5.43;1.70;;;;;;;21.53;89.93;100464.22;4976031;28;20392;-81
2022/08/25 02:51:07;;;;;;;6.68;1.50;;;;;;;21.47;90.79;100465.16;4976196;28;20034;-79
2022/08/25 02:53:34;;;;;;;1.85;1.45;;;;;;;21.45;91.27;100467.25;4993521;28;20046;-80
2022/08/25 02:56:00;;;;;;;4.07;1.60;;;;;;;21.44;90.54;100465.63;4998531;28;20015;-82
2022/08/25 02:58:25;;;;;;;7.13;1.45;;;;;;;21.51;89.45;100467.13;4980411;28;20045;-81
2022/08/25 03:00:51;;;;;;;2.38;1.40;;;;;;;21.50;89.04;100464.69;4975737;28;20038;-81
2022/08/25 03:03:18;;;;;;;1.63;1.50;;;;;;;21.47;89.20;100470.53;4975587;28;20448;-82
2022/08/25 03:05:44;;;;;;;2.88;1.90;;;;;;;21.39;89.25;100473.56;4975708;28;20479;-81
2022/08/25 03:08:10;;;;;;;6.28;1.33;;;;;;;21.37;89.48;100476.53;4975741;28;20030;-82
2022/08/25 03:10:36;;;;;;;11.52;1.70;;;;;;;21.22;91.69;100464.53;4975599;28;20122;-83
2022/08/25 03:13:02;;;;;;;4.25;1.85;;;;;;;21.22;91.89;100467.22;4975765;28;20106;-83
2022/08/25 03:15:28;;;;;;;1.75;1.60;;;;;;;21.14;92.42;100477.28;4975580;28;20038;-83
2022/08/25 03:17:54;;;;;;;3.25;1.90;;;;;;;21.11;92.69;100463.47;4975570;28;20062;-83
2022/08/25 03:20:21;;;;;;;10.88;2.03;;;;;;;21.07;93.44;100473.06;4981730;28;20476;-82
2022/08/25 03:22:47;;;;;;;4.60;2.17;;;;;;;21.04;93.91;100468.94;4996098;28;20053;-83
2022/08/25 03:27:58;;;;;;;4.40;1.75;;;;;;;21.02;94.24;100467.53;4975678;28;20039;-82
2022/08/25 03:30:25;;;;;;;11.15;2.28;;;;;;;20.94;94.83;100467.88;4975341;28;20034;-83
2022/08/25 03:32:50;;;;;;;4.50;1.85;;;;;;;20.91;95.65;100465.63;4975273;28;20168;-84
2022/08/25 03:35:16;;;;;;;4.50;2.17;;;;;;;20.88;96.52;100472.28;4981925;28;20072;-82
2022/08/25 03:37:42;;;;;;;4.50;2.22;;;;;;;20.86;96.50;100460.09;4987413;28;20101;-83
2022/08/25 03:40:10;;;;;;;4.30;1.75;;;;;;;20.81;96.92;100460.81;4987577;28;20038;-81
2022/08/25 03:42:42;;;;;;;2.45;1.70;;;;;;;20.86;96.31;100457.41;4988159;28;20047;-83
2022/08/25 03:45:10;;;;;;;5.00;2.07;;;;;;;20.81;96.41;100463.50;4993633;28;20039;-82
2022/08/25 03:47:37;;;;;;;4.07;1.77;;;;;;;20.73;97.57;100455.75;4989069;28;20284;-84
2022/08/25 03:50:05;;;;;;;4.25;1.90;;;;;;;20.74;99.14;100459.25;4976388;28;20125;-83
2022/08/25 03:52:30;;;;;;;6.68;2.00;;;;;;;20.82;98.46;100467.00;4974996;28;20392;-82
2022/08/25 03:54:56;;;;;;;2.33;1.98;;;;;;;20.79;97.47;100452.13;4974955;28;20034;-82
2022/08/25 03:57:21;;;;;;;4.28;2.10;;;;;;;20.71;98.24;100459.72;4973283;28;20026;-82
2022/08/25 03:59:47;;;;;;;6.20;1.80;;;;;;;20.74;98.29;100453.88;4974206;28;20473;-82
2022/08/25 04:02:12;;;;;;;5.45;1.60;;;;;;;20.74;99.40;100454.69;4974961;28;20097;-87
2022/08/25 04:04:39;;;;;;;3.45;1.83;;;;;;;20.89;97.58;100455.09;4973255;28;20063;-85
2022/08/25 04:07:05;;;;;;;2.58;1.75;;;;;;;20.96;96.91;100458.50;4975023;28;20383;-81
2022/08/25 04:09:31;;;;;;;3.65;1.60;;;;;;;20.92;97.63;100460.00;4974416;28;20085;-82
2022/08/25 04:11:56;;;;;;;9.52;1.63;;;;;;;20.97;96.80;100453.94;4974519;28;20043;-85
2022/08/25 04:14:22;;;;;;;3.35;1.83;;;;;;;20.94;96.63;100452.53;4974466;28;20094;-84
2022/08/25 04:16:48;;;;;;;3.50;1.50;;;;;;;21.10;95.78;100454.56;4974399;28;20381;-84
2022/08/25 04:19:14;;;;;;;5.35;1.70;;;;;;;20.85;94.79;100451.19;4974121;28;20500;-82
2022/08/25 04:21:40;;;;;;;7.60;1.65;;;;;;;20.90;94.40;100448.66;4974324;28;20166;-82
2022/08/25 04:24:09;;;;;;;6.25;1.50;;;;;;;20.93;93.36;100453.56;4973919;28;20177;-83
2022/08/25 04:26:38;;;;;;;6.80;2.00;;;;;;;20.78;94.59;100450.47;4974256;28;20034;-83
2022/08/25 04:29:06;;;;;;;2.85;1.90;;;;;;;20.77;94.72;100446.16;4974362;28;20121;-82
2022/08/25 04:31:32;;;;;;;3.65;1.80;;;;;;;20.73;95.22;100461.13;4974425;28;20038;-82
2022/08/25 04:34:04;;;;;;;7.13;2.25;;;;;;;20.65;96.29;100456.06;4973214;28;20503;-84
2022/08/25 04:36:30;;;;;;;6.72;2.13;;;;;;;20.58;97.30;100452.66;4974484;28;20038;-84
2022/08/25 04:39:16;;;;;;;8.88;2.10;;;;;;;20.61;96.48;100460.28;4974791;28;20476;-84
2022/08/25 04:41:42;;;;;;;5.80;2.42;;;;;;;20.54;97.85;100454.16;4992543;28;20027;-83
2022/08/25 04:44:07;;;;;;;3.05;1.80;;;;;;;20.67;96.58;100453.16;4986533;28;20326;-83
2022/08/25 04:46:34;;;;;;;5.28;1.90;;;;;;;20.83;95.25;100461.41;4974331;28;20035;-82
2022/08/25 04:49:01;;;;;;;5.68;2.35;;;;;;;21.00;94.29;100448.06;4974011;28;20450;-84
2022/08/25 04:51:30;;;;;;;4.57;2.17;;;;;;;20.97;95.05;100453.94;4973880;28;20403;-85
2022/08/25 04:53:59;;;;;;;7.43;2.03;;;;;;;21.07;94.88;100460.41;4974824;28;20026;-82
2022/08/25 04:56:25;;;;;;;4.60;1.83;;;;;;;21.15;93.98;100461.94;4969600;28;20031;-84
2022/08/25 04:58:51;;;;;;;6.10;2.35;;;;;;;21.09;95.22;100458.31;4972548;28;20042;-84
2022/08/25 05:01:21;;;;;;;7.82;2.15;;;;;;;21.30;93.91;100458.81;4973209;28;20110;-86
2022/08/25 05:03:53;;;;;;;5.68;2.05;;;;;;;21.27;94.14;100453.88;4974297;28;20492;-85
2022/08/25 05:06:18;;;;;;;6.95;2.33;;;;;;;21.34;94.35;100457.28;4975534;28;20121;-86
2022/08/25 05:08:44;;;;;;;6.85;2.05;;;;;;;21.41;93.71;100449.91;4973013;28;20438;-88
2022/08/25 05:11:13;;;;;;;5.57;2.35;;;;;;;21.49;93.46;100452.25;4975918;28;20035;-85
2022/08/25 05:13:40;;;;;;;10.52;2.70;;;;;;;21.63;92.95;100457.16;4978048;28;20519;-84
2022/08/25 05:16:06;;;;;;;7.57;2.75;;;;;;;21.61;93.21;100455.75;4978294;28;20558;-88
2022/08/25 05:18:33;;;;;;;10.18;2.30;;;;;;;21.59;93.45;100452.47;4977171;28;20027;-88
2022/08/25 05:21:08;;;;;;;11.15;2.50;;;;;;;21.84;92.00;100455.72;4978299;28;20503;-86
2022/08/25 05:23:34;;;;;;;15.07;2.47;;;;;;;22.00;90.70;100449.63;4980200;28;20039;-85
2022/08/25 05:26:03;;;;;;;4.55;2.63;;;;;;;22.05;90.19;100457.81;4979913;28;20043;-83
2022/08/25 05:28:29;;;;;;;23.92;3.22;;;;;;;22.16;89.45;100448.06;4979232;28;20035;-85
2022/08/25 05:31:00;;;;;;;14.30;2.80;;;;;;;22.82;86.77;100455.56;4961719;28;20506;-83
2022/08/25 05:33:27;;;;;;;11.55;3.13;;;;;;;23.60;80.70;100460.88;4977139;28;20039;-83
2022/08/25 05:35:54;;;;;;;10.43;3.15;;;;;;;24.15;77.44;100457.31;4978181;28;20078;-85
2022/08/25 05:38:20;;;;;;;11.98;3.20;;;;;;;24.56;73.02;100464.03;4976850;28;20039;-84
2022/08/25 05:40:46;;;;;;;11.25;3.20;;;;;;;23.99;76.50;100464.41;4981060;28;20031;-84
2022/08/25 05:43:13;;;;;;;8.30;2.85;;;;;;;25.27;71.19;100464.69;4978800;28;20037;-86
2022/08/25 05:45:39;;;;;;;18.45;2.88;;;;;;;24.85;71.44;100457.28;4981996;28;20039;-84
2022/08/25 05:48:05;;;;;;;12.45;2.60;;;;;;;24.38;74.05;100467.88;4980039;28;20396;-84
2022/08/25 05:50:31;;;;;;;9.48;2.20;;;;;;;25.77;68.66;100467.75;4978600;28;20043;-86
2022/08/25 05:52:56;;;;;;;9.45;2.60;;;;;;;26.73;63.72;100468.13;4976813;28;20085;-88
2022/08/25 05:55:22;;;;;;;5.28;2.20;;;;;;;27.24;59.46;100466.31;4960425;28;20118;-86
2022/08/25 05:57:47;;;;;;;10.50;2.50;;;;;;;27.12;58.49;100466.56;4968669;28;20491;-87
2022/08/25 06:00:13;;;;;;;10.60;2.08;;;;;;;26.74;60.50;100456.19;4990026;28;20050;-87
2022/08/25 06:02:40;;;;;;;13.05;2.33;;;;;;;26.61;60.02;100456.72;4982103;28;20043;-88
2022/08/25 06:05:08;;;;;;;10.07;2.22;;;;;;;26.78;61.59;100459.19;4958466;28;20043;-86
2022/08/25 06:07:36;;;;;;;7.97;1.67;;;;;;;27.01;60.50;100454.03;4966051;28;20034;-88
2022/08/25 06:10:05;;;;;;;13.15;2.03;;;;;;;27.31;58.70;100452.41;4974384;28;20054;-87
2022/08/25 06:12:33;;;;;;;4.05;1.70;;;;;;;27.59;56.43;100463.56;4958935;28;20043;-89
2022/08/25 06:14:58;;;;;;;2.72;1.70;;;;;;;26.72;60.39;100452.91;4977391;28;20043;-88
2022/08/25 06:17:24;;;;;;;10.07;1.60;;;;;;;27.11;59.24;100450.53;4961820;28;20106;-87
2022/08/25 06:19:49;;;;;;;3.58;1.50;;;;;;;27.22;58.67;100447.50;4971387;28;20058;-88
2022/08/25 06:22:15;;;;;;;7.38;1.63;;;;;;;27.06;59.00;100445.88;4972328;28;20043;-85
2022/08/25 06:24:41;;;;;;;10.57;1.65;;;;;;;27.73;57.87;100440.09;4975348;28;20078;-82
2022/08/25 06:27:09;;;;;;;8.88;1.58;;;;;;;27.18;58.54;100432.00;4956517;28;20476;-86
2022/08/25 06:29:34;;;;;;;7.00;1.60;;;;;;;26.54;61.51;100431.69;4968630;28;20050;-89
2022/08/25 06:32:00;;;;;;;7.07;2.00;;;;;;;26.55;61.97;100416.97;4956652;28;20043;-84
2022/08/25 06:34:25;;;;;;;4.72;1.40;;;;;;;26.79;61.79;100423.53;4956912;28;20031;-85
2022/08/25 06:36:51;;;;;;;15.05;1.92;;;;;;;27.02;60.17;100422.22;4956162;28;20036;-85
2022/08/25 06:39:17;;;;;;;10.45;2.00;;;;;;;27.01;61.23;100421.38;4955743;28;20481;-86
2022/08/25 06:41:42;;;;;;;14.57;2.30;;;;;;;27.32;59.98;100424.91;4956135;29;20039;-87
2022/08/25 06:44:09;;;;;;;5.80;1.73;;;;;;;27.16;60.40;100424.13;4955815;29;20082;-86
2022/08/25 06:46:35;;;;;;;6.28;1.92;;;;;;;27.25;60.68;100416.19;4956842;28;20046;-84
2022/08/25 06:49:01;;;;;;;6.57;1.95;;;;;;;27.31;59.89;100408.88;4958268;28;20031;-88
2022/08/25 06:51:27;;;;;;;9.02;1.85;;;;;;;27.46;59.98;100411.56;4957773;29;20042;-86
2022/08/25 06:53:52;;;;;;;5.18;2.00;;;;;;;27.26;60.46;100408.84;4974532;28;20039;-86
2022/08/25 06:56:20;;;;;;;11.70;2.17;;;;;;;27.76;59.14;100416.13;4961732;28;20477;-84
2022/08/25 06:58:46;;;;;;;11.65;1.50;;;;;;;27.87;58.74;100423.16;4961613;28;20039;-84
2022/08/25 07:01:27;;;;;;;7.75;1.60;;;;;;;27.81;57.95;100413.41;4964766;28;20023;-88
2022/08/25 07:03:58;;;;;;;8.40;1.95;;;;;;;28.09;55.13;100410.84;4960979;28;20047;-86
2022/08/25 07:06:27;;;;;;;30.02;4.38;;;;;;;28.27;53.63;100412.13;4958152;29;20059;-86
2022/08/25 07:08:53;;;;;;;14.88;3.10;;;;;;;28.73;52.64;100404.47;4975655;28;20039;-86
2022/08/25 07:11:25;;;;;;;46.47;4.95;;;;;;;28.70;52.44;100415.94;4960324;28;20035;-86
2022/08/25 07:13:50;;;;;;;12.00;2.15;;;;;;;28.57;51.87;100427.47;4958271;28;20040;-86
2022/08/25 07:16:19;;;;;;;8.70;1.92;;;;;;;28.64;49.63;100425.22;4956804;29;20046;-85
2022/08/25 07:18:45;;;;;;;4.57;1.50;;;;;;;28.48;50.28;100423.69;4961243;28;20042;-85
2022/08/25 07:21:12;;;;;;;14.52;2.13;;;;;;;28.55;50.14;100414.09;4973991;28;20058;-90
2022/08/25 07:23:41;;;;;;;7.10;1.17;;;;;;;29.39;47.80;100409.34;4981308;28;20050;-88
2022/08/25 07:26:30;;;;;;;2.15;1.13;;;;;;;29.11;47.46;100410.94;4980253;28;20031;-87
2022/08/25 07:28:57;;;;;;;5.28;1.30;;;;;;;30.27;45.51;100407.72;4978558;28;20073;-84
2022/08/25 07:31:32;;;;;;;4.18;1.02;;;;;;;30.21;43.70;100419.84;4978973;28;20094;-93
2022/08/25 07:36:41;;;;;;;4.93;1.20;;;;;;;29.94;43.54;100408.72;4976631;28;20047;-86
2022/08/25 07:39:07;;;;;;;9.88;1.35;;;;;;;30.40;43.85;100399.88;4975850;28;20039;-87
2022/08/25 07:41:37;;;;;;;6.40;1.20;;;;;;;30.07;42.93;100407.19;4976651;28;20047;-88
2022/08/25 07:44:04;;;;;;;2.85;1.10;;;;;;;30.39;43.00;100404.56;4978318;28;20038;-92
2022/08/25 07:46:29;;;;;;;2.55;1.30;;;;;;;30.79;41.66;100418.75;4976411;28;20039;-90
2022/08/25 07:48:58;;;;;;;4.72;1.10;;;;;;;30.73;41.91;100420.75;4960873;28;20030;-90
2022/08/25 07:51:24;;;;;;;9.55;1.30;;;;;;;30.95;42.05;100423.69;4987594;28;20023;-88
2022/08/25 07:54:10;;;;;;;2.60;1.00;;;;;;;31.32;41.26;100421.97;4989519;28;20128;-89
2022/08/25 07:56:36;;;;;;;1.80;1.10;;;;;;;31.55;40.65;100426.50;4989949;28;20034;-88
2022/08/25 07:59:06;;;;;;;3.88;1.40;;;;;;;31.75;39.86;100426.13;4988373;28;20081;-87
2022/08/25 08:01:32;;;;;;;7.85;1.80;;;;;;;31.40;40.08;100422.09;4988425;28;20027;-88
2022/08/25 08:06:57;;;;;;;6.17;1.10;;;;;;;31.30;41.23;100418.72;5179330;23;20046;-89
2022/08/25 08:09:54;;;;;;;5.65;1.20;;;;;;;30.98;41.26;100409.44;4957275;29;20051;-88
2022/08/25 08:12:59;;;;;;;3.35;1.17;;;;;;;31.45;41.81;100411.06;4925300;29;20035;-88
2022/08/25 08:20:07;;;;;;;3.35;1.23;;;;;;;32.55;39.84;100425.47;5014709;28;20054;-88
2022/08/25 08:23:38;;;;;;;4.78;1.25;;;;;;;33.10;39.05;100418.69;5005848;28;20046;-87
2022/08/25 08:26:35;;;;;;;5.90;1.20;;;;;;;33.18;37.13;100426.16;5010644;28;20054;-88
2022/08/25 08:29:46;;;;;;;5.30;1.45;;;;;;;33.51;36.68;100434.09;5022467;28;20049;-90
2022/08/25 08:32:39;;;;;;;6.03;1.40;;;;;;;33.07;37.33;100429.47;4999750;28;20038;-87
2022/08/25 08:37:52;;;;;;;7.47;1.50;;;;;;;33.57;35.80;100432.81;5049127;22;20054;-87
2022/08/25 08:44:23;;;;;;;8.23;1.25;;;;;;;32.95;37.52;100435.50;5000209;28;20030;-87
2022/08/25 08:50:26;;;;;;;13.15;1.52;;;;;;;33.94;34.65;100426.03;3714533;26;20558;-88
2022/08/25 08:53:26;;;;;;;2.42;1.27;;;;;;;34.18;33.14;100431.91;4976333;28;20109;-89
2022/08/25 08:56:27;;;;;;;5.30;1.42;;;;;;;33.19;34.66;100424.22;4990948;28;20098;-84
2022/08/25 08:59:12;;;;;;;3.50;1.25;;;;;;;34.38;34.07;100431.28;4934943;29;20040;-84
2022/08/25 09:01:58;;;;;;;4.65;1.20;;;;;;;34.71;33.38;100423.38;4938271;29;20076;-84
2022/08/25 09:05:14;;;;;;;6.00;1.42;;;;;;;34.40;34.16;100423.56;4932484;29;20063;-85
2022/08/25 09:08:21;;;;;;;3.70;1.40;;;;;;;34.18;32.87;100427.22;4919459;29;20030;-85
2022/08/25 09:11:14;;;;;;;4.88;1.60;;;;;;;34.50;32.46;100420.47;4974161;29;20039;-85
2022/08/25 09:14:09;;;;;;;2.53;1.20;;;;;;;33.81;33.16;100414.00;4975116;29;20047;-87
2022/08/25 09:17:22;;;;;;;3.03;1.60;;;;;;;33.12;35.41;100413.69;4975746;29;20035;-88
2022/08/25 09:20:40;;;;;;;5.65;1.50;;;;;;;34.21;33.30;100414.75;4975198;29;20094;-86
2022/08/25 09:23:52;;;;;;;7.05;1.85;;;;;;;34.43;33.41;100416.56;4974447;28;20044;-85
2022/08/25 09:26:39;;;;;;;8.00;1.50;;;;;;;34.63;32.98;100413.22;4957735;29;20037;-85
2022/08/25 09:29:27;;;;;;;7.78;1.73;;;;;;;34.89;32.92;100416.75;4959121;29;20039;-84
2022/08/25 09:32:26;;;;;;;5.05;1.55;;;;;;;35.03;32.72;100414.63;4939037;29;20048;-86
2022/08/25 09:40:23;;;;;;;7.07;1.52;;;;;;;35.62;31.79;100414.78;5003150;23;20062;-87
2022/08/25 09:43:32;;;;;;;6.28;1.63;;;;;;;34.95;32.71;100409.91;5051422;23;20058;-87
2022/08/25 09:51:31;;;;;;;6.30;1.77;;;;;;;34.81;32.92;100387.25;4991794;28;20073;-85
2022/08/25 09:54:24;;;;;;;12.88;1.50;;;;;;;35.02;32.80;100382.69;4992814;28;20057;-85
2022/08/25 09:57:26;;;;;;;18.92;2.15;;;;;;;34.54;32.96;100376.56;5009109;28;20038;-82
2022/08/25 09:59:55;;;;;;;8.63;1.77;;;;;;;34.72;32.93;100379.03;4988858;28;20038;-84
2022/08/25 10:02:31;;;;;;;3.30;1.63;;;;;;;33.90;33.65;100376.34;4976405;28;20031;-83
2022/08/25 10:05:22;;;;;;;3.00;1.58;;;;;;;34.40;32.92;100379.50;4958344;29;20066;-83
2022/08/25 10:08:32;;;;;;;4.32;2.05;;;;;;;33.91;33.36;100372.44;4978373;29;20043;-82
2022/08/25 10:11:16;;;;;;;4.30;1.90;;;;;;;34.35;32.74;100365.91;4933812;29;20052;-83
2022/08/25 10:14:28;;;;;;;5.10;1.85;;;;;;;35.02;32.24;100360.66;4920019;29;20059;-85
2022/08/25 10:17:14;;;;;;;4.90;1.50;;;;;;;35.12;32.33;100368.59;4938240;29;20068;-82
2022/08/25 10:20:27;;;;;;;4.50;2.15;;;;;;;35.23;31.42;100369.81;4937848;29;20043;-83
2022/08/25 10:23:15;;;;;;;4.17;1.80;;;;;;;34.47;33.17;100362.50;4938643;29;20040;-82
2022/08/25 10:25:53;;;;;;;11.13;1.65;;;;;;;34.17;33.38;100359.56;4959642;29;20319;-82
2022/08/25 10:29:31;;;;;;;6.80;2.00;;;;;;;34.27;33.46;100348.25;4965412;29;20035;-83
2022/08/25 10:32:40;;;;;;;3.00;1.40;;;;;;;34.58;32.88;100339.00;5094510;23;20045;-84
2022/08/25 10:39:28;;;;;;;5.38;1.80;;;;;;;34.50;32.66;100339.84;5241886;23;20061;-84
2022/08/25 10:42:16;;;;;;;4.83;2.03;;;;;;;34.64;32.67;100330.28;5016368;28;20018;-87
2022/08/25 10:48:56;;;;;;;3.85;1.80;;;;;;;34.89;32.25;100325.84;5015737;28;20045;-83
2022/08/25 10:51:54;;;;;;;4.25;1.90;;;;;;;35.11;32.21;100327.56;5015006;28;20043;-81
2022/08/25 10:54:58;;;;;;;2.97;1.80;;;;;;;34.94;32.45;100316.59;5007836;28;20097;-84
2022/08/25 10:58:42;;;;;;;8.20;2.10;;;;;;;34.53;33.03;100317.16;5017152;28;20076;-83
2022/08/25 11:02:11;;;;;;;5.18;2.10;;;;;;;35.40;31.92;100310.28;5012619;28;20114;-85
2022/08/25 11:05:21;;;;;;;5.75;1.73;;;;;;;35.25;31.21;100306.94;5011438;28;20050;-82
2022/08/25 11:08:47;;;;;;;6.55;2.00;;;;;;;35.59;30.64;100299.66;4985182;28;20058;-82
2022/08/25 11:12:05;;;;;;;4.10;2.10;;;;;;;36.07;30.09;100294.44;5016384;28;20026;-79
2022/08/25 11:14:48;;;;;;;6.47;2.20;;;;;;;36.94;28.81;100289.69;4998314;28;20042;-83
2022/08/25 11:17:55;;;;;;;6.70;1.85;;;;;;;35.94;30.51;100286.41;5011679;28;20042;-83
2022/08/25 11:21:30;;;;;;;5.87;2.20;;;;;;;35.59;30.41;100289.44;5009817;28;20058;-86
2022/08/25 11:24:48;;;;;;;7.72;2.25;;;;;;;35.85;30.23;100292.00;5016800;28;20133;-82
2022/08/25 11:28:33;;;;;;;4.03;2.20;;;;;;;36.02;30.14;100289.13;5016923;28;20047;-85
2022/08/25 11:31:46;;;;;;;6.47;2.00;;;;;;;35.73;30.38;100283.66;5016131;28;20069;-80
2022/08/25 12:07:00;;;;;;;2.92;1.90;;;;;;;32.53;36.33;100257.59;3657520;23;20042;-85
2022/08/25 12:09:54;;;;;;;2.80;2.00;;;;;;;32.63;36.26;100254.63;4986884;28;20030;-83
2022/08/25 12:12:43;;;;;;;6.57;1.90;;;;;;;32.49;35.51;100267.56;5013795;28;20151;-80
2022/08/25 12:15:54;;;;;;;10.07;2.20;;;;;;;32.14;36.31;100255.56;4999857;28;20035;-81
2022/08/25 12:18:50;;;;;;;2.83;1.75;;;;;;;32.15;35.83;100257.19;5011960;28;20030;-88
2022/08/25 12:21:32;;;;;;;4.05;1.98;;;;;;;31.58;36.91;100250.53;5030659;22;20110;-88
2022/08/25 12:24:44;;;;;;;3.10;1.90;;;;;;;31.14;37.67;100251.97;4995191;28;20109;-87
2022/08/25 12:27:56;;;;;;;5.60;2.00;;;;;;;31.36;37.67;100242.19;5014492;28;20086;-87
2022/08/25 12:30:55;;;;;;;6.28;1.90;;;;;;;31.89;37.40;100254.19;5006327;28;20094;-86
2022/08/25 12:33:37;;;;;;;2.58;1.95;;;;;;;31.71;36.15;100255.19;4992697;28;20038;-88
2022/08/25 12:36:08;;;;;;;3.30;1.92;;;;;;;31.70;36.63;100253.53;4982505;28;20046;-87
2022/08/25 12:39:01;;;;;;;4.13;2.10;;;;;;;31.76;36.76;100249.56;5005106;28;20031;-89
2022/08/25 12:41:29;;;;;;;5.13;2.00;;;;;;;31.65;37.58;100250.94;4968251;28;20050;-89
2022/08/25 12:44:29;;;;;;;4.60;2.15;;;;;;;31.40;38.51;100244.03;5007049;28;20084;-89
2022/08/25 12:47:16;;;;;;;3.10;1.83;;;;;;;31.49;38.60;100236.72;5015709;28;20037;-87
2022/08/25 12:49:41;;;;;;;4.32;2.05;;;;;;;31.46;38.91;100231.84;4975550;28;20047;-87
2022/08/25 12:52:26;;;;;;;3.65;2.25;;;;;;;31.45;39.49;100240.38;5009267;28;20037;-86
2022/08/25 12:55:19;;;;;;;4.25;2.22;;;;;;;31.62;39.11;100241.38;4994042;28;20038;-89
2022/08/25 12:57:56;;;;;;;5.18;2.15;;;;;;;31.40;38.97;100237.75;4987363;28;20045;-90
2022/08/25 13:00:27;;;;;;;5.80;2.45;;;;;;;31.27;39.67;100232.00;5004769;28;20041;-89
2022/08/25 13:03:15;;;;;;;4.95;1.80;;;;;;;31.41;39.78;100222.94;4986169;28;20049;-88
2022/08/25 13:06:13;;;;;;;3.80;2.13;;;;;;;31.56;39.08;100225.34;4980922;28;20038;-86
2022/08/25 13:09:08;;;;;;;5.20;2.38;;;;;;;31.59;39.73;100220.06;4995516;28;20103;-86
2022/08/25 13:11:37;;;;;;;4.97;2.10;;;;;;;31.58;38.63;100212.19;4984544;28;20045;-86
2022/08/25 13:14:25;;;;;;;3.78;2.10;;;;;;;31.54;39.48;100213.91;4968654;28;20078;-87
2022/08/25 13:16:57;;;;;;;2.85;2.22;;;;;;;31.42;39.14;100213.59;4987127;28;20503;-89
2022/08/25 13:19:24;;;;;;;4.53;2.40;;;;;;;31.62;39.44;100211.25;4965168;28;20390;-85
2022/08/25 13:21:51;;;;;;;8.60;2.10;;;;;;;31.55;39.01;100205.41;4975650;28;20038;-84
2022/08/25 13:24:29;;;;;;;7.22;2.00;;;;;;;31.38;38.96;100202.47;4978065;28;20023;-85